Time;durP1;ratioP1;P1;durP2;ratioP2;P2;SDS_P1;SDS_P2;PMS_P1;PMS_P2;Temp;Humidity;BMP_temperature;BMP_pressure;BME280_temperature;BME280_humidity;BME280_pressure;Samples;Min_cycle;Max_cycle;Signal;HPM_P1;HPM_P2
2022/11/05 00:09:27;;;;;;;166.17;97.63;;;;;;;;;;5056538;28;20269;-53
2022/11/05 00:17:04;;;;;;;171.90;99.20;;;;;;;;;;5050919;28;20706;-52
2022/11/05 00:19:30;;;;;;;166.80;98.07;;;;;;;;;;5055559;28;20215;-52
2022/11/05 00:27:26;;;;;;;166.53;96.83;;;;;;;;;;5060205;28;20210;-52
2022/11/05 00:29:52;;;;;;;172.80;99.30;;;;;;;;;;5060697;28;20175;-52
2022/11/05 00:32:18;;;;;;;176.37;100.77;;;;;;;;;;5058551;28;20218;-52
2022/11/05 00:34:43;;;;;;;167.03;97.97;;;;;;;;;;5048216;28;20226;-52
2022/11/05 00:37:09;;;;;;;168.20;97.57;;;;;;;;;;5059476;28;20234;-52
2022/11/05 00:39:35;;;;;;;174.43;100.07;;;;;;;;;;5061606;28;20213;-52
2022/11/05 00:45:01;;;;;;;143.50;91.13;;;;;;;;;;5067863;28;20254;-52
2022/11/05 00:50:13;;;;;;;164.07;97.00;;;;;;;;;;5056457;28;20214;-52
2022/11/05 00:52:54;;;;;;;170.70;97.93;;;;;;;;;;5058757;28;20211;-52
2022/11/05 00:55:20;;;;;;;176.63;98.37;;;;;;;;;;5057862;28;20210;-52
2022/11/05 00:57:46;;;;;;;188.03;104.83;;;;;;;;;;5059230;28;20273;-52
2022/11/05 01:00:12;;;;;;;178.03;99.97;;;;;;;;;;5061423;28;20184;-52
2022/11/05 01:02:38;;;;;;;169.23;98.00;;;;;;;;;;5059210;28;20223;-52
2022/11/05 01:05:04;;;;;;;170.60;99.43;;;;;;;;;;5058759;28;20264;-52
2022/11/05 01:07:30;;;;;;;159.97;95.50;;;;;;;;;;5062156;28;20252;-52
2022/11/05 01:09:56;;;;;;;195.70;106.13;;;;;;;;;;5057444;28;20305;-52
2022/11/05 01:12:22;;;;;;;184.93;103.00;;;;;;;;;;5058574;28;20172;-52
2022/11/05 01:14:48;;;;;;;177.93;101.13;;;;;;;;;;5057541;28;20214;-52
2022/11/05 01:17:14;;;;;;;172.03;98.53;;;;;;;;;;5058330;28;20223;-52
2022/11/05 01:19:40;;;;;;;150.00;93.40;;;;;;;;;;5060468;28;20574;-52
2022/11/05 01:22:06;;;;;;;173.40;100.07;;;;;;;;;;5057842;28;20233;-52
2022/11/05 01:24:32;;;;;;;180.57;102.37;;;;;;;;;;5059529;28;20270;-52
2022/11/05 01:26:58;;;;;;;190.00;105.47;;;;;;;;;;5060900;28;20631;-52
2022/11/05 01:29:24;;;;;;;172.73;99.60;;;;;;;;;;5064080;28;20222;-52
2022/11/05 01:31:50;;;;;;;179.13;104.57;;;;;;;;;;5055107;28;20214;-52
2022/11/05 01:34:15;;;;;;;172.97;98.80;;;;;;;;;;5060611;28;20639;-52
2022/11/05 01:36:41;;;;;;;174.70;98.57;;;;;;;;;;5058272;28;20789;-52
2022/11/05 01:39:07;;;;;;;187.43;103.40;;;;;;;;;;5058245;28;20259;-52
2022/11/05 01:41:33;;;;;;;181.10;100.80;;;;;;;;;;5060912;28;20261;-52
2022/11/05 01:43:59;;;;;;;159.63;94.87;;;;;;;;;;5063609;28;20218;-52
2022/11/05 01:46:32;;;;;;;185.13;101.83;;;;;;;;;;5057862;28;20215;-52
2022/11/05 01:49:02;;;;;;;162.00;96.13;;;;;;;;;;5056857;28;20215;-52
2022/11/05 01:51:28;;;;;;;190.53;108.20;;;;;;;;;;5057170;28;20251;-52
2022/11/05 01:53:57;;;;;;;187.97;104.30;;;;;;;;;;5059706;28;20179;-52
2022/11/05 01:56:26;;;;;;;160.27;94.77;;;;;;;;;;5057987;28;20234;-52
2022/11/05 01:58:58;;;;;;;195.60;105.13;;;;;;;;;;5063061;28;20231;-52
2022/11/05 02:01:24;;;;;;;178.67;101.23;;;;;;;;;;5060201;28;20225;-52
2022/11/05 02:03:53;;;;;;;160.53;95.33;;;;;;;;;;5057444;28;20219;-52
2022/11/05 02:06:19;;;;;;;162.37;95.83;;;;;;;;;;5056125;28;20215;-52
2022/11/05 02:08:45;;;;;;;142.80;88.70;;;;;;;;;;5057413;28;20461;-52
2022/11/05 02:11:12;;;;;;;181.70;101.00;;;;;;;;;;5057927;28;20212;-52
2022/11/05 02:13:38;;;;;;;174.93;98.93;;;;;;;;;;5061214;28;20315;-52
2022/11/05 02:16:16;;;;;;;170.53;98.33;;;;;;;;;;5062651;28;20242;-52
2022/11/05 02:18:55;;;;;;;187.87;104.70;;;;;;;;;;5056792;28;20183;-52
2022/11/05 02:21:40;;;;;;;182.70;101.57;;;;;;;;;;5057244;28;20167;-52
2022/11/05 02:24:12;;;;;;;193.93;104.90;;;;;;;;;;5057847;28;20212;-52
2022/11/05 02:26:41;;;;;;;210.20;109.53;;;;;;;;;;5064516;28;20263;-52
2022/11/05 02:29:22;;;;;;;181.60;99.90;;;;;;;;;;5059582;28;20591;-52
2022/11/05 02:32:06;;;;;;;186.93;101.40;;;;;;;;;;5060750;28;20229;-52
2022/11/05 02:34:50;;;;;;;179.17;98.73;;;;;;;;;;5053304;28;20211;-52
2022/11/05 02:37:38;;;;;;;159.13;93.90;;;;;;;;;;5064995;28;20222;-52
2022/11/05 02:40:11;;;;;;;183.17;99.57;;;;;;;;;;5057773;28;20248;-52
2022/11/05 02:42:46;;;;;;;191.07;103.47;;;;;;;;;;5056937;28;20326;-52
2022/11/05 02:45:18;;;;;;;187.17;101.90;;;;;;;;;;5057725;28;20214;-52
2022/11/05 02:47:45;;;;;;;167.43;95.93;;;;;;;;;;5070348;28;20222;-52
2022/11/05 02:50:34;;;;;;;201.70;106.10;;;;;;;;;;5055967;28;20211;-52
2022/11/05 02:53:09;;;;;;;192.10;102.87;;;;;;;;;;5055577;28;20204;-52
2022/11/05 02:55:41;;;;;;;187.50;103.83;;;;;;;;;;5056272;28;20272;-52
2022/11/05 02:58:07;;;;;;;190.23;103.03;;;;;;;;;;5054797;28;20750;-52
2022/11/05 03:00:52;;;;;;;187.03;102.50;;;;;;;;;;5057570;28;20190;-52
2022/11/05 03:03:18;;;;;;;202.20;105.10;;;;;;;;;;5057133;28;20183;-52
2022/11/05 03:05:50;;;;;;;199.23;105.50;;;;;;;;;;5056384;28;20225;-52
2022/11/05 03:08:22;;;;;;;171.87;96.53;;;;;;;;;;5064048;28;20617;-52
2022/11/05 03:10:56;;;;;;;179.33;99.33;;;;;;;;;;5061617;28;20207;-52
2022/11/05 03:13:24;;;;;;;178.40;99.87;;;;;;;;;;5056553;28;20211;-52
2022/11/05 03:15:57;;;;;;;201.77;106.30;;;;;;;;;;5056026;28;20755;-52
2022/11/05 03:18:34;;;;;;;157.30;94.00;;;;;;;;;;5053662;28;20187;-52
2022/11/05 03:21:04;;;;;;;166.40;95.83;;;;;;;;;;5056377;28;20198;-52
2022/11/05 03:23:33;;;;;;;198.00;104.67;;;;;;;;;;5062486;28;20205;-52
2022/11/05 03:26:05;;;;;;;182.30;99.80;;;;;;;;;;5067977;28;20210;-52
2022/11/05 03:28:34;;;;;;;186.30;101.70;;;;;;;;;;5054665;28;20215;-52
2022/11/05 03:31:01;;;;;;;187.30;101.40;;;;;;;;;;5052804;28;20212;-52
2022/11/05 03:33:28;;;;;;;192.57;103.87;;;;;;;;;;5062859;28;20178;-52
2022/11/05 03:35:56;;;;;;;194.10;103.93;;;;;;;;;;5063166;28;20277;-52
2022/11/05 03:38:25;;;;;;;151.50;91.70;;;;;;;;;;5053780;28;20770;-52
2022/11/05 03:40:53;;;;;;;190.77;102.47;;;;;;;;;;5056188;28;20734;-52
2022/11/05 03:43:20;;;;;;;179.63;98.67;;;;;;;;;;5055577;28;20246;-52
2022/11/05 03:45:51;;;;;;;167.33;94.97;;;;;;;;;;5052121;28;20230;-52
2022/11/05 03:48:18;;;;;;;188.03;101.20;;;;;;;;;;5058465;28;20172;-52
2022/11/05 03:50:47;;;;;;;180.80;99.37;;;;;;;;;;5048253;28;20699;-52
2022/11/05 03:53:22;;;;;;;155.20;93.63;;;;;;;;;;5055786;28;20233;-52
2022/11/05 03:55:52;;;;;;;162.90;96.03;;;;;;;;;;5063782;28;20214;-52
2022/11/05 03:58:19;;;;;;;173.17;97.77;;;;;;;;;;5058189;28;20214;-52
2022/11/05 04:00:45;;;;;;;171.77;96.73;;;;;;;;;;5055547;28;20234;-52
2022/11/05 04:03:11;;;;;;;165.10;95.60;;;;;;;;;;5056566;28;20174;-52
2022/11/05 04:05:37;;;;;;;174.57;99.70;;;;;;;;;;5055769;28;20222;-52
2022/11/05 04:13:34;;;;;;;154.20;92.90;;;;;;;;;;5058655;28;20222;-52
2022/11/05 04:18:44;;;;;;;160.53;94.23;;;;;;;;;;5056895;28;20237;-52
2022/11/05 04:24:07;;;;;;;143.70;90.47;;;;;;;;;;5055670;28;20221;-52
2022/11/05 04:26:34;;;;;;;172.17;98.77;;;;;;;;;;5054750;28;20241;-52
2022/11/05 04:31:44;;;;;;;136.63;87.67;;;;;;;;;;5051562;28;20729;-52
2022/11/05 04:34:10;;;;;;;146.63;90.03;;;;;;;;;;5055694;28;20199;-52
2022/11/05 04:36:36;;;;;;;156.87;95.87;;;;;;;;;;5054773;28;20259;-52
2022/11/05 04:39:02;;;;;;;151.73;93.37;;;;;;;;;;5058946;28;20199;-52
2022/11/05 04:41:28;;;;;;;174.40;99.83;;;;;;;;;;5057965;28;20239;-52
2022/11/05 04:43:54;;;;;;;148.43;94.33;;;;;;;;;;5056115;28;20214;-52
2022/11/05 04:46:20;;;;;;;153.77;92.73;;;;;;;;;;5054190;28;20223;-52
2022/11/05 04:48:46;;;;;;;167.70;98.67;;;;;;;;;;5055886;28;20583;-52
2022/11/05 04:51:12;;;;;;;153.50;94.10;;;;;;;;;;5061498;28;20182;-52
2022/11/05 04:53:38;;;;;;;156.13;94.40;;;;;;;;;;5060552;28;20212;-50
2022/11/05 04:56:20;;;;;;;135.00;88.00;;;;;;;;;;5058981;28;20552;-50
2022/11/05 04:58:46;;;;;;;146.63;91.60;;;;;;;;;;5053518;28;20247;-50
2022/11/05 05:01:13;;;;;;;152.67;92.23;;;;;;;;;;5059161;28;20299;-50
2022/11/05 05:03:39;;;;;;;117.53;83.67;;;;;;;;;;5055586;28;20179;-51
2022/11/05 05:06:06;;;;;;;148.27;92.03;;;;;;;;;;5054646;28;20213;-51
2022/11/05 05:08:32;;;;;;;170.03;100.73;;;;;;;;;;5053959;28;20214;-51
2022/11/05 05:11:05;;;;;;;131.23;86.43;;;;;;;;;;5057405;28;20679;-51
2022/11/05 05:13:31;;;;;;;157.50;94.53;;;;;;;;;;5057384;28;20284;-51
2022/11/05 05:15:57;;;;;;;153.00;94.87;;;;;;;;;;5057808;28;20230;-51
2022/11/05 05:18:25;;;;;;;151.13;93.97;;;;;;;;;;5057788;28;20195;-51
2022/11/05 05:23:36;;;;;;;158.47;97.60;;;;;;;;;;5056201;28;20238;-51
2022/11/05 05:26:02;;;;;;;148.53;91.43;;;;;;;;;;5057906;28;20212;-51
2022/11/05 05:28:28;;;;;;;145.87;92.53;;;;;;;;;;5057378;28;20587;-51
2022/11/05 05:30:57;;;;;;;152.53;93.20;;;;;;;;;;5057460;28;20572;-51
2022/11/05 05:33:23;;;;;;;150.10;93.67;;;;;;;;;;5062980;28;20196;-51
2022/11/05 05:35:49;;;;;;;151.30;94.83;;;;;;;;;;5059250;28;20269;-51
2022/11/05 05:38:15;;;;;;;152.07;94.70;;;;;;;;;;5057920;28;20757;-51
2022/11/05 05:40:41;;;;;;;141.17;91.93;;;;;;;;;;5059338;28;20211;-52
2022/11/05 05:43:07;;;;;;;155.70;96.07;;;;;;;;;;5056968;28;20223;-51
2022/11/05 05:45:35;;;;;;;133.27;87.07;;;;;;;;;;5059691;28;20199;-51
2022/11/05 05:48:01;;;;;;;106.43;80.50;;;;;;;;;;5056607;28;20249;-51
2022/11/05 05:50:27;;;;;;;124.93;84.43;;;;;;;;;;5057576;28;20220;-51
2022/11/05 05:52:52;;;;;;;139.67;89.03;;;;;;;;;;5061337;28;20238;-51
2022/11/05 05:55:18;;;;;;;153.37;94.03;;;;;;;;;;5056866;28;20522;-51
2022/11/05 05:57:44;;;;;;;157.97;96.30;;;;;;;;;;5057736;28;20241;-51
2022/11/05 06:00:10;;;;;;;138.37;88.20;;;;;;;;;;5060445;28;20622;-51
2022/11/05 06:02:36;;;;;;;139.97;87.23;;;;;;;;;;5062120;28;20588;-51
2022/11/05 06:05:02;;;;;;;109.03;79.17;;;;;;;;;;5070993;28;20215;-51
2022/11/05 06:07:28;;;;;;;156.30;93.83;;;;;;;;;;5057358;28;20230;-52
2022/11/05 06:09:54;;;;;;;137.70;88.40;;;;;;;;;;5067114;28;20633;-51
2022/11/05 06:12:20;;;;;;;139.43;89.93;;;;;;;;;;5059333;28;20199;-51
2022/11/05 06:14:46;;;;;;;145.23;92.00;;;;;;;;;;5055985;28;20227;-51
2022/11/05 06:17:12;;;;;;;144.13;91.40;;;;;;;;;;5063852;28;20227;-51
2022/11/05 06:19:38;;;;;;;115.70;84.73;;;;;;;;;;5063150;28;20279;-51
2022/11/05 06:22:04;;;;;;;137.07;90.23;;;;;;;;;;5059785;28;20303;-51
2022/11/05 06:24:30;;;;;;;147.40;93.67;;;;;;;;;;5056248;28;20612;-51
2022/11/05 06:26:56;;;;;;;149.77;94.33;;;;;;;;;;5050943;28;20335;-51
2022/11/05 06:29:22;;;;;;;140.37;90.17;;;;;;;;;;5050834;28;20719;-51
2022/11/05 06:31:48;;;;;;;123.53;86.10;;;;;;;;;;5050438;28;20215;-51
2022/11/05 06:34:14;;;;;;;151.17;95.93;;;;;;;;;;5050691;28;20623;-51
2022/11/05 06:36:40;;;;;;;152.63;94.40;;;;;;;;;;5050527;28;20281;-52
2022/11/05 06:39:14;;;;;;;140.10;91.30;;;;;;;;;;5051182;28;20168;-51
2022/11/05 06:41:40;;;;;;;136.43;89.57;;;;;;;;;;5050297;28;20242;-51
2022/11/05 06:44:06;;;;;;;129.37;85.60;;;;;;;;;;5050870;28;20250;-51
2022/11/05 06:46:32;;;;;;;168.87;100.37;;;;;;;;;;5049772;28;20235;-51
2022/11/05 06:48:58;;;;;;;138.17;90.80;;;;;;;;;;5050642;28;20211;-51
2022/11/05 06:51:25;;;;;;;138.40;89.93;;;;;;;;;;5050378;28;20225;-51
2022/11/05 06:53:51;;;;;;;137.47;90.17;;;;;;;;;;5050896;28;20170;-51
2022/11/05 06:56:17;;;;;;;272.27;138.33;;;;;;;;;;5049029;28;20404;-51
2022/11/05 06:58:43;;;;;;;150.80;97.07;;;;;;;;;;5050282;28;20203;-51
2022/11/05 07:01:09;;;;;;;170.53;100.87;;;;;;;;;;5050140;28;20208;-51
2022/11/05 07:03:36;;;;;;;211.03;119.63;;;;;;;;;;5048701;28;20180;-51
2022/11/05 07:06:03;;;;;;;164.57;100.07;;;;;;;;;;5047425;28;20261;-51
2022/11/05 07:08:33;;;;;;;155.40;97.10;;;;;;;;;;5048982;28;20224;-52
2022/11/05 07:10:59;;;;;;;139.23;92.40;;;;;;;;;;5049976;28;20204;-51
2022/11/05 07:13:25;;;;;;;147.17;93.17;;;;;;;;;;5049456;28;20211;-51
2022/11/05 07:15:51;;;;;;;153.97;93.23;;;;;;;;;;5050050;28;20215;-51
2022/11/05 07:18:17;;;;;;;149.97;93.67;;;;;;;;;;5049731;28;20210;-51
2022/11/05 07:20:43;;;;;;;143.57;92.00;;;;;;;;;;5049829;28;20211;-51
2022/11/05 07:23:10;;;;;;;142.57;90.77;;;;;;;;;;5049727;28;20277;-51
2022/11/05 07:25:36;;;;;;;152.13;93.73;;;;;;;;;;5049693;28;20726;-51
2022/11/05 07:28:03;;;;;;;161.90;96.67;;;;;;;;;;5049031;28;20247;-51
2022/11/05 07:30:29;;;;;;;138.70;91.23;;;;;;;;;;5049503;28;20578;-51
2022/11/05 07:32:55;;;;;;;137.27;90.53;;;;;;;;;;5049328;28;20182;-51
2022/11/05 07:35:21;;;;;;;139.73;91.50;;;;;;;;;;5050045;28;20211;-51
2022/11/05 07:37:48;;;;;;;144.30;93.90;;;;;;;;;;5049434;28;20274;-51
2022/11/05 07:40:16;;;;;;;133.10;87.97;;;;;;;;;;5049438;28;20256;-52
2022/11/05 07:42:43;;;;;;;133.83;89.97;;;;;;;;;;5049313;28;20190;-52
2022/11/05 07:45:10;;;;;;;142.30;93.13;;;;;;;;;;5049953;28;20520;-51
2022/11/05 07:47:37;;;;;;;145.20;93.30;;;;;;;;;;5048760;28;20218;-51
2022/11/05 07:50:03;;;;;;;110.27;81.47;;;;;;;;;;5049571;28;20219;-51
2022/11/05 07:52:30;;;;;;;103.53;79.00;;;;;;;;;;5049407;28;20466;-51
2022/11/05 07:54:56;;;;;;;137.33;91.43;;;;;;;;;;5049277;28;20235;-51
2022/11/05 07:57:22;;;;;;;127.93;87.87;;;;;;;;;;5048998;28;20210;-51
2022/11/05 07:59:48;;;;;;;156.80;95.90;;;;;;;;;;5049331;28;20215;-51
2022/11/05 08:02:14;;;;;;;149.37;92.27;;;;;;;;;;5047749;28;20640;-51
2022/11/05 08:04:41;;;;;;;141.13;89.40;;;;;;;;;;5049200;28;20738;-51
2022/11/05 08:07:07;;;;;;;137.37;89.70;;;;;;;;;;5049094;28;20231;-51
2022/11/05 08:09:33;;;;;;;106.13;80.17;;;;;;;;;;5049558;28;20172;-51
2022/11/05 08:11:59;;;;;;;146.60;93.00;;;;;;;;;;5049010;28;20198;-52
2022/11/05 08:14:25;;;;;;;131.80;87.47;;;;;;;;;;5049393;28;20215;-51
2022/11/05 08:16:51;;;;;;;133.50;87.30;;;;;;;;;;5048394;28;20626;-51
2022/11/05 08:19:17;;;;;;;161.43;93.63;;;;;;;;;;5048850;28;20711;-51
2022/11/05 08:21:43;;;;;;;140.50;88.13;;;;;;;;;;5047480;28;20230;-50
2022/11/05 08:24:09;;;;;;;137.63;88.83;;;;;;;;;;5049450;28;20678;-51
2022/11/05 08:26:35;;;;;;;148.10;91.80;;;;;;;;;;5048627;28;20243;-51
2022/11/05 08:29:01;;;;;;;145.67;90.57;;;;;;;;;;5049053;28;20290;-52
2022/11/05 08:31:27;;;;;;;175.43;100.43;;;;;;;;;;5048932;28;20211;-51
2022/11/05 08:33:53;;;;;;;132.20;86.70;;;;;;;;;;5048928;28;20652;-51
2022/11/05 08:36:19;;;;;;;136.07;88.00;;;;;;;;;;5049072;28;20200;-52
2022/11/05 08:38:45;;;;;;;171.07;99.33;;;;;;;;;;5048818;28;20233;-51
2022/11/05 08:41:11;;;;;;;137.63;87.00;;;;;;;;;;5048939;28;20215;-51
2022/11/05 08:43:37;;;;;;;131.77;87.20;;;;;;;;;;5050077;28;20592;-51
2022/11/05 08:46:03;;;;;;;135.03;86.97;;;;;;;;;;5051613;28;20310;-51
2022/11/05 08:48:29;;;;;;;149.53;93.53;;;;;;;;;;5052052;28;20168;-51
2022/11/05 08:50:54;;;;;;;138.73;89.30;;;;;;;;;;5053431;28;20164;-51
2022/11/05 08:53:20;;;;;;;120.93;85.17;;;;;;;;;;5052629;28;20211;-52
2022/11/05 08:55:48;;;;;;;202.23;111.57;;;;;;;;;;5050197;28;20224;-49
2022/11/05 08:58:15;;;;;;;203.90;110.80;;;;;;;;;;5033428;28;20587;-49
2022/11/05 09:00:42;;;;;;;227.57;118.53;;;;;;;;;;5024415;28;20221;-50
2022/11/05 09:03:08;;;;;;;146.20;94.50;;;;;;;;;;5040951;28;20182;-52
2022/11/05 09:05:36;;;;;;;146.50;93.77;;;;;;;;;;5051693;28;20219;-51
2022/11/05 09:08:06;;;;;;;141.83;91.43;;;;;;;;;;5052482;28;20219;-51
2022/11/05 09:10:32;;;;;;;147.53;94.43;;;;;;;;;;5054324;28;20261;-51
2022/11/05 09:12:58;;;;;;;140.10;93.33;;;;;;;;;;5051592;28;20211;-51
2022/11/05 09:15:24;;;;;;;156.90;97.17;;;;;;;;;;5052143;28;20175;-52
2022/11/05 09:17:50;;;;;;;133.37;87.63;;;;;;;;;;5051727;28;20245;-52
2022/11/05 09:20:16;;;;;;;106.90;81.70;;;;;;;;;;5052974;28;20253;-52
2022/11/05 09:22:42;;;;;;;127.10;86.47;;;;;;;;;;5052445;28;20219;-52
2022/11/05 09:25:08;;;;;;;145.83;89.93;;;;;;;;;;5052588;28;20752;-52
2022/11/05 09:27:34;;;;;;;147.87;91.13;;;;;;;;;;5052314;28;20175;-52
2022/11/05 09:30:01;;;;;;;112.77;82.07;;;;;;;;;;5053087;28;20413;-52
2022/11/05 09:32:27;;;;;;;126.53;85.67;;;;;;;;;;5052016;28;20211;-52
2022/11/05 09:34:53;;;;;;;129.77;87.20;;;;;;;;;;5052090;28;20715;-52
2022/11/05 09:37:19;;;;;;;106.53;79.43;;;;;;;;;;5052433;28;20297;-52
2022/11/05 09:39:45;;;;;;;145.47;91.23;;;;;;;;;;5052296;28;20675;-52
2022/11/05 09:42:13;;;;;;;141.97;90.00;;;;;;;;;;5052448;28;20210;-52
2022/11/05 09:44:50;;;;;;;125.77;86.33;;;;;;;;;;5052437;28;20650;-52
2022/11/05 09:47:23;;;;;;;117.37;84.40;;;;;;;;;;5051915;28;20221;-52
2022/11/05 09:49:49;;;;;;;138.70;90.87;;;;;;;;;;5051530;28;20702;-52
2022/11/05 09:52:23;;;;;;;135.27;90.30;;;;;;;;;;5052128;28;20211;-52
2022/11/05 09:54:50;;;;;;;146.90;92.10;;;;;;;;;;5052121;28;20688;-52
2022/11/05 09:57:18;;;;;;;126.60;87.77;;;;;;;;;;5051787;28;20253;-52
2022/11/05 09:59:45;;;;;;;152.33;94.33;;;;;;;;;;5052058;28;20295;-51
2022/11/05 10:02:16;;;;;;;154.47;94.57;;;;;;;;;;5051654;28;20216;-52
2022/11/05 10:04:43;;;;;;;132.93;87.57;;;;;;;;;;5052058;28;20237;-52
2022/11/05 10:07:12;;;;;;;123.23;88.00;;;;;;;;;;5051181;28;20219;-52
2022/11/05 10:09:49;;;;;;;162.40;98.40;;;;;;;;;;5050991;28;20620;-52
2022/11/05 10:12:17;;;;;;;118.53;88.20;;;;;;;;;;5051717;28;20168;-52
2022/11/05 10:14:46;;;;;;;152.67;93.83;;;;;;;;;;5050054;28;20226;-52
2022/11/05 10:17:15;;;;;;;165.50;99.50;;;;;;;;;;5050940;28;20338;-52
2022/11/05 10:19:48;;;;;;;171.53;99.20;;;;;;;;;;5051252;28;20211;-52
2022/11/05 10:22:16;;;;;;;129.80;87.93;;;;;;;;;;5051128;28;20203;-52
2022/11/05 10:24:43;;;;;;;152.13;90.00;;;;;;;;;;5051175;28;20536;-52
2022/11/05 10:27:17;;;;;;;136.73;89.93;;;;;;;;;;5051300;28;20187;-52
2022/11/05 10:29:44;;;;;;;136.97;88.60;;;;;;;;;;5051572;28;20214;-51
2022/11/05 10:32:12;;;;;;;142.73;91.63;;;;;;;;;;5051242;28;20219;-51
2022/11/05 10:34:39;;;;;;;145.90;93.77;;;;;;;;;;5051436;28;20585;-52
2022/11/05 10:37:04;;;;;;;158.70;97.47;;;;;;;;;;5051157;28;20234;-52
2022/11/05 10:39:31;;;;;;;152.23;97.90;;;;;;;;;;5051594;28;20180;-51
2022/11/05 10:41:57;;;;;;;150.27;96.60;;;;;;;;;;5051506;28;20179;-52
2022/11/05 10:44:32;;;;;;;143.23;93.73;;;;;;;;;;5051374;28;20215;-52
2022/11/05 10:47:24;;;;;;;158.60;97.87;;;;;;;;;;5050621;28;20586;-52
2022/11/05 10:49:50;;;;;;;135.03;89.90;;;;;;;;;;5042685;28;20245;-51
2022/11/05 10:52:19;;;;;;;141.33;93.23;;;;;;;;;;5051444;28;20574;-51
2022/11/05 10:54:45;;;;;;;163.90;97.50;;;;;;;;;;5051204;28;20231;-52
2022/11/05 10:57:28;;;;;;;138.53;91.50;;;;;;;;;;5051035;28;20195;-52
2022/11/05 11:00:14;;;;;;;144.53;93.20;;;;;;;;;;5051327;28;20212;-51
2022/11/05 11:02:43;;;;;;;166.17;101.27;;;;;;;;;;5050297;28;20215;-51
2022/11/05 11:05:32;;;;;;;146.87;94.53;;;;;;;;;;5050843;28;20222;-52
2022/11/05 11:08:10;;;;;;;155.13;98.30;;;;;;;;;;5046802;28;20306;-51
2022/11/05 11:10:39;;;;;;;135.60;94.77;;;;;;;;;;5051167;28;20727;-52
2022/11/05 11:13:06;;;;;;;149.93;100.33;;;;;;;;;;5050429;28;20208;-52
2022/11/05 11:15:32;;;;;;;151.17;98.90;;;;;;;;;;5050605;28;20655;-52
2022/11/05 11:17:58;;;;;;;160.53;103.07;;;;;;;;;;5050588;28;20282;-52
2022/11/05 11:20:32;;;;;;;150.63;100.47;;;;;;;;;;5050781;28;20215;-52
2022/11/05 11:23:01;;;;;;;128.27;92.80;;;;;;;;;;5050430;28;20215;-52
2022/11/05 11:25:28;;;;;;;137.33;95.53;;;;;;;;;;5050436;28;20211;-52
2022/11/05 11:27:55;;;;;;;163.70;104.23;;;;;;;;;;5049230;28;20579;-52
2022/11/05 11:30:21;;;;;;;141.53;95.77;;;;;;;;;;5049048;28;20168;-52
2022/11/05 11:32:48;;;;;;;122.23;87.47;;;;;;;;;;5049102;28;20219;-52
2022/11/05 11:35:21;;;;;;;119.20;83.57;;;;;;;;;;5049388;28;20242;-52
2022/11/05 11:37:48;;;;;;;113.60;81.43;;;;;;;;;;5049970;28;20226;-51
2022/11/05 11:40:20;;;;;;;103.90;84.73;;;;;;;;;;5049756;28;20208;-52
2022/11/05 11:42:50;;;;;;;147.90;98.77;;;;;;;;;;5049552;28;20721;-52
2022/11/05 11:45:18;;;;;;;164.93;104.83;;;;;;;;;;5049977;28;20180;-52
2022/11/05 11:47:48;;;;;;;146.23;100.00;;;;;;;;;;5049682;28;20207;-51
2022/11/05 11:50:32;;;;;;;170.07;105.10;;;;;;;;;;5030125;28;20224;-51
2022/11/05 11:53:17;;;;;;;153.60;101.30;;;;;;;;;;5029747;28;20239;-52
2022/11/05 11:55:56;;;;;;;142.53;100.23;;;;;;;;;;5042669;28;20219;-51
2022/11/05 11:58:24;;;;;;;134.27;96.20;;;;;;;;;;5049563;28;20275;-51
2022/11/05 12:00:54;;;;;;;126.10;95.27;;;;;;;;;;5049887;28;20230;-51
2022/11/05 12:03:31;;;;;;;116.57;88.50;;;;;;;;;;5049591;28;20255;-51
2022/11/05 12:06:04;;;;;;;155.43;100.80;;;;;;;;;;5047244;28;20595;-51
2022/11/05 12:08:33;;;;;;;314.37;133.23;;;;;;;;;;5043321;28;20261;-50
2022/11/05 12:11:03;;;;;;;256.10;120.67;;;;;;;;;;5032886;28;20744;-50
2022/11/05 12:13:47;;;;;;;287.33;127.63;;;;;;;;;;5014602;28;20223;-51
2022/11/05 12:16:21;;;;;;;122.13;88.90;;;;;;;;;;5029731;28;20829;-51
2022/11/05 12:18:53;;;;;;;126.53;88.37;;;;;;;;;;5047370;28;20235;-51
2022/11/05 12:21:31;;;;;;;156.87;99.10;;;;;;;;;;5049674;28;20321;-51
2022/11/05 12:24:04;;;;;;;133.80;95.07;;;;;;;;;;5049188;28;20218;-51
2022/11/05 12:26:37;;;;;;;140.63;97.40;;;;;;;;;;5048746;28;20222;-51
2022/11/05 12:29:32;;;;;;;134.67;94.73;;;;;;;;;;5049187;28;20219;-51
2022/11/05 12:32:09;;;;;;;136.17;93.63;;;;;;;;;;5043403;28;20302;-51
2022/11/05 12:34:35;;;;;;;135.50;93.93;;;;;;;;;;5044738;28;20626;-51
2022/11/05 12:37:08;;;;;;;133.60;93.30;;;;;;;;;;5048808;28;20231;-51
2022/11/05 12:39:37;;;;;;;137.47;94.93;;;;;;;;;;5049078;28;20166;-51
2022/11/05 12:42:03;;;;;;;135.10;88.73;;;;;;;;;;5049117;28;20714;-51
2022/11/05 12:44:44;;;;;;;160.97;101.13;;;;;;;;;;5048073;28;20215;-51
2022/11/05 12:47:29;;;;;;;155.43;99.93;;;;;;;;;;5047512;28;20288;-52
2022/11/05 12:50:04;;;;;;;215.43;117.63;;;;;;;;;;5048428;28;20346;-51
2022/11/05 12:52:30;;;;;;;222.47;119.70;;;;;;;;;;5048781;28;20681;-52
2022/11/05 12:55:04;;;;;;;210.45;120.32;;;;;;;;;;5048825;28;20326;-52
2022/11/05 12:57:32;;;;;;;224.50;126.27;;;;;;;;;;5047793;28;20563;-52
2022/11/05 13:00:05;;;;;;;231.32;131.73;;;;;;;;;;5049066;28;20186;-51
2022/11/05 13:02:40;;;;;;;201.30;119.78;;;;;;;;;;5048056;28;20276;-51
2022/11/05 13:05:12;;;;;;;195.80;116.10;;;;;;;;;;5048813;28;20238;-51
2022/11/05 13:07:39;;;;;;;171.95;111.13;;;;;;;;;;5048193;28;20230;-51
2022/11/05 13:10:13;;;;;;;158.20;109.13;;;;;;;;;;5048527;28;20222;-51
2022/11/05 13:12:40;;;;;;;199.48;123.65;;;;;;;;;;5043099;28;20648;-51
2022/11/05 13:15:14;;;;;;;225.77;129.57;;;;;;;;;;5048825;28;20171;-51
2022/11/05 13:17:53;;;;;;;222.27;124.63;;;;;;;;;;5047749;28;20713;-51
2022/11/05 13:20:20;;;;;;;307.90;149.03;;;;;;;;;;5048145;28;20208;-52
2022/11/05 13:22:48;;;;;;;322.10;150.77;;;;;;;;;;5048129;28;20231;-52
2022/11/05 13:25:24;;;;;;;335.63;156.90;;;;;;;;;;5048290;28;20264;-52
2022/11/05 13:28:09;;;;;;;329.03;156.13;;;;;;;;;;5047728;28;20218;-52
2022/11/05 13:30:38;;;;;;;327.85;158.25;;;;;;;;;;5048868;28;20171;-52
2022/11/05 13:33:06;;;;;;;304.55;150.60;;;;;;;;;;5051682;28;20543;-52
2022/11/05 13:35:39;;;;;;;336.02;162.02;;;;;;;;;;5055123;28;20211;-51
2022/11/05 13:40:58;;;;;;;328.17;160.27;;;;;;;;;;5045534;28;20265;-52
2022/11/05 13:43:29;;;;;;;326.02;157.48;;;;;;;;;;5051247;28;20219;-52
2022/11/05 13:46:10;;;;;;;330.60;160.68;;;;;;;;;;5051326;28;20298;-52
2022/11/05 13:48:45;;;;;;;337.63;163.82;;;;;;;;;;5049895;28;20242;-52
2022/11/05 13:51:11;;;;;;;334.25;163.48;;;;;;;;;;5051989;28;20221;-52
2022/11/05 13:53:55;;;;;;;326.15;160.18;;;;;;;;;;5052233;28;20482;-52
2022/11/05 13:56:33;;;;;;;342.23;166.00;;;;;;;;;;5059479;28;20238;-52
2022/11/05 13:59:14;;;;;;;341.25;169.07;;;;;;;;;;5048678;28;20211;-52
2022/11/05 14:01:52;;;;;;;362.90;180.13;;;;;;;;;;5053520;28;20208;-52
2022/11/05 14:04:25;;;;;;;348.92;183.00;;;;;;;;;;5050185;28;20221;-52
2022/11/05 14:06:52;;;;;;;328.13;166.77;;;;;;;;;;5050184;28;20219;-52
2022/11/05 14:09:24;;;;;;;352.23;178.25;;;;;;;;;;5051839;28;20189;-52
2022/11/05 14:11:52;;;;;;;347.52;177.52;;;;;;;;;;5059850;28;20260;-52
2022/11/05 14:14:29;;;;;;;341.13;174.38;;;;;;;;;;5055623;28;20211;-52
2022/11/05 14:17:25;;;;;;;352.00;180.05;;;;;;;;;;5056993;28;20246;-52
2022/11/05 14:20:06;;;;;;;331.83;167.38;;;;;;;;;;5046658;28;20598;-52
2022/11/05 14:22:32;;;;;;;326.13;164.55;;;;;;;;;;5051045;28;20520;-52
2022/11/05 14:24:59;;;;;;;336.55;170.60;;;;;;;;;;5051033;28;20667;-52
2022/11/05 14:27:25;;;;;;;335.08;166.60;;;;;;;;;;5050697;28;20286;-52
2022/11/05 14:29:51;;;;;;;327.52;165.50;;;;;;;;;;5051091;28;20186;-52
2022/11/05 14:32:17;;;;;;;329.05;167.75;;;;;;;;;;5050244;28;20219;-51
2022/11/05 14:34:46;;;;;;;325.23;164.52;;;;;;;;;;5055313;28;20302;-52
2022/11/05 14:37:12;;;;;;;310.02;155.98;;;;;;;;;;5050861;28;20228;-52
2022/11/05 14:39:38;;;;;;;292.83;150.80;;;;;;;;;;5050324;28;20180;-52
2022/11/05 14:42:12;;;;;;;325.77;163.40;;;;;;;;;;5050367;28;20171;-52
2022/11/05 14:44:56;;;;;;;307.25;162.02;;;;;;;;;;5050754;28;20219;-51
2022/11/05 14:47:23;;;;;;;272.63;146.60;;;;;;;;;;5050056;28;20234;-52
2022/11/05 14:49:51;;;;;;;289.20;151.85;;;;;;;;;;5050968;28;20219;-52
2022/11/05 14:52:18;;;;;;;293.42;154.05;;;;;;;;;;5053047;28;20337;-51
2022/11/05 14:54:47;;;;;;;291.00;148.50;;;;;;;;;;5051999;28;20360;-51
2022/11/05 14:57:14;;;;;;;286.03;148.53;;;;;;;;;;5049112;28;20195;-51